Time;durP1;ratioP1;P1;durP2;ratioP2;P2;SDS_P1;SDS_P2;PMS_P1;PMS_P2;Temp;Humidity;BMP_temperature;BMP_pressure;BME280_temperature;BME280_humidity;BME280_pressure;Samples;Min_cycle;Max_cycle;Signal;HPM_P1;HPM_P2
2021/06/16 00:00:50;;;;;;;8.98;3.88;;;538.40;1408.00;;;;;;5114232;28;20073;-58
2021/06/16 00:03:15;;;;;;;6.97;3.53;;;538.20;1408.00;;;;;;5114182;28;20016;-73
2021/06/16 00:05:42;;;;;;;8.82;3.53;;;538.10;1433.60;;;;;;5113842;28;20134;-72
2021/06/16 00:08:09;;;;;;;6.47;3.40;;;538.20;1408.00;;;;;;5114174;28;20024;-69
2021/06/16 00:10:35;;;;;;;6.30;3.15;;;538.20;1408.00;;;;;;5114091;28;20019;-58
2021/06/16 00:13:03;;;;;;;5.63;3.17;;;538.20;1408.00;;;;;;5114119;28;20089;-59
2021/06/16 00:15:38;;;;;;;8.57;3.53;;;538.20;1408.00;;;;;;5114034;28;20072;-73
2021/06/16 00:18:05;;;;;;;5.13;3.50;;;538.20;1408.00;;;;;;5114326;28;20380;-59
2021/06/16 00:20:31;;;;;;;11.07;3.95;;;538.10;1408.00;;;;;;5114145;28;20068;-59
2021/06/16 00:22:57;;;;;;;7.43;3.53;;;538.10;1433.60;;;;;;5114172;28;20031;-74
2021/06/16 00:25:24;;;;;;;7.32;3.47;;;538.00;1433.60;;;;;;5129739;28;20088;-59
2021/06/16 00:27:50;;;;;;;6.43;3.60;;;538.00;1433.60;;;;;;5113862;28;20031;-59
2021/06/16 00:30:16;;;;;;;7.28;3.55;;;538.00;1433.60;;;;;;5114421;28;20024;-59
2021/06/16 00:32:43;;;;;;;9.00;3.53;;;537.90;1433.60;;;;;;5114081;28;20023;-74
2021/06/16 00:35:10;;;;;;;6.60;3.35;;;537.90;1433.60;;;;;;5118069;28;20030;-59
2021/06/16 00:37:36;;;;;;;6.53;3.80;;;537.90;1433.60;;;;;;5118049;28;20024;-58
2021/06/16 00:40:08;;;;;;;6.43;3.75;;;537.80;1433.60;;;;;;5118055;28;20023;-59
2021/06/16 00:42:34;;;;;;;5.47;3.30;;;537.70;1459.20;;;;;;5118199;28;20076;-58
2021/06/16 00:45:00;;;;;;;8.88;4.03;;;537.60;1459.20;;;;;;5117865;28;20031;-58
2021/06/16 00:47:26;;;;;;;9.95;3.88;;;537.70;1459.20;;;;;;5118096;28;20032;-58
2021/06/16 00:49:52;;;;;;;13.40;4.00;;;537.70;1459.20;;;;;;5117840;28;20027;-58
2021/06/16 00:52:18;;;;;;;8.43;3.65;;;537.70;1459.20;;;;;;5118294;28;20098;-71
2021/06/16 00:54:43;;;;;;;7.97;3.58;;;537.70;1459.20;;;;;;5117792;28;20349;-58
2021/06/16 00:57:09;;;;;;;6.70;4.47;;;537.70;1433.60;;;;;;5117936;28;20034;-58
2021/06/16 00:59:53;;;;;;;5.93;3.47;;;537.70;1433.60;;;;;;5118237;28;20024;-58
2021/06/16 01:02:20;;;;;;;;;;;537.70;1459.20;;;;;;5118055;28;20023;-73
2021/06/16 01:04:48;;;;;;;7.47;3.72;;;537.60;1459.20;;;;;;5117427;28;19961;-73
2021/06/16 01:07:15;;;;;;;9.60;3.67;;;537.60;1459.20;;;;;;5117461;28;20031;-72
2021/06/16 01:09:52;;;;;;;9.25;3.90;;;537.60;1459.20;;;;;;5117462;28;20024;-58
2021/06/16 01:12:26;;;;;;;9.57;3.55;;;537.60;1459.20;;;;;;5117681;28;20361;-58
2021/06/16 01:15:18;;;;;;;11.15;4.10;;;512.80;1459.20;;;;;;5117359;28;20020;-58
2021/06/16 01:17:58;;;;;;;7.68;3.72;;;512.90;1433.60;;;;;;5106325;28;20028;-58
2021/06/16 01:20:30;;;;;;;7.68;4.22;;;512.90;1433.60;;;;;;5117307;28;20024;-58
2021/06/16 01:22:56;;;;;;;9.35;4.35;;;512.90;1433.60;;;;;;5117558;28;20480;-72
2021/06/16 01:25:30;;;;;;;11.43;4.05;;;512.90;1433.60;;;;;;5117094;28;20031;-59
2021/06/16 01:27:57;;;;;;;9.13;3.90;;;512.90;1433.60;;;;;;5117189;28;20046;-72
2021/06/16 01:30:27;;;;;;;9.20;4.10;;;512.90;1433.60;;;;;;5117156;28;20027;-58
2021/06/16 01:32:55;;;;;;;4.88;3.55;;;512.80;1433.60;;;;;;5117060;28;20028;-60
2021/06/16 01:35:21;;;;;;;6.18;3.90;;;512.80;1459.20;;;;;;5117313;28;20024;-59
2021/06/16 01:37:48;;;;;;;10.32;3.92;;;512.80;1433.60;;;;;;5116967;28;20064;-58
2021/06/16 01:40:14;;;;;;;6.78;4.07;;;512.70;1459.20;;;;;;5116925;28;20019;-58
2021/06/16 01:42:41;;;;;;;7.80;3.90;;;512.60;1459.20;;;;;;5116808;28;20019;-58
2021/06/16 01:45:08;;;;;;;6.05;4.13;;;512.60;1459.20;;;;;;5115856;28;20559;-58
2021/06/16 01:47:35;;;;;;;6.72;4.05;;;512.60;1459.20;;;;;;5116737;28;20023;-59
2021/06/16 01:50:03;;;;;;;8.55;4.28;;;512.60;1459.20;;;;;;5116690;28;20542;-58
2021/06/16 01:52:31;;;;;;;7.65;3.95;;;512.50;1484.80;;;;;;5098399;28;20476;-58
2021/06/16 01:54:59;;;;;;;7.75;4.50;;;512.50;1484.80;;;;;;5116895;28;20031;-58
2021/06/16 01:57:26;;;;;;;13.02;4.40;;;512.50;1484.80;;;;;;5116564;28;20016;-58
2021/06/16 01:59:59;;;;;;;9.13;4.40;;;512.50;1484.80;;;;;;5116502;28;20103;-58
2021/06/16 02:02:25;;;;;;;9.18;4.43;;;512.50;1510.40;;;;;;5116524;28;20453;-58
2021/06/16 02:04:51;;;;;;;8.27;4.45;;;512.30;1510.40;;;;;;5116146;28;20100;-58
2021/06/16 02:07:25;;;;;;;7.65;4.55;;;512.20;1510.40;;;;;;5116299;28;20036;-58
2021/06/16 02:09:53;;;;;;;9.32;4.65;;;512.20;1536.00;;;;;;5116507;28;20016;-58
2021/06/16 02:12:21;;;;;;;6.10;4.40;;;512.10;1536.00;;;;;;5116250;28;20031;-58
2021/06/16 02:15:10;;;;;;;8.88;4.88;;;512.10;1536.00;;;;;;5116275;28;20468;-58
2021/06/16 02:17:37;;;;;;;6.47;3.83;;;512.00;1510.40;;;;;;5115511;28;20035;-58
2021/06/16 02:20:07;;;;;;;11.93;5.15;;;512.10;1536.00;;;;;;5116088;28;20020;-58
2021/06/16 02:22:34;;;;;;;9.63;4.53;;;512.00;1536.00;;;;;;5115994;28;20472;-58
2021/06/16 02:25:01;;;;;;;10.10;4.45;;;512.00;1536.00;;;;;;5116236;28;20076;-58
2021/06/16 02:27:27;;;;;;;8.57;4.95;;;487.30;1536.00;;;;;;5115897;28;20043;-58
2021/06/16 02:29:53;;;;;;;10.73;4.85;;;487.30;1536.00;;;;;;5115981;28;20019;-58
2021/06/16 02:32:19;;;;;;;8.45;5.07;;;487.20;1561.60;;;;;;5097705;28;20384;-58
2021/06/16 02:34:45;;;;;;;10.63;5.05;;;487.10;1561.60;;;;;;5115878;28;20016;-58
2021/06/16 02:37:15;;;;;;;9.95;4.85;;;487.10;1561.60;;;;;;5115689;28;20388;-58
2021/06/16 02:39:56;;;;;;;11.75;4.65;;;487.20;1561.60;;;;;;5115750;28;20031;-58
2021/06/16 02:42:22;;;;;;;8.68;4.93;;;487.20;1561.60;;;;;;5116290;28;20012;-58
2021/06/16 02:44:52;;;;;;;6.70;4.22;;;487.20;1561.60;;;;;;5115629;28;20026;-58
2021/06/16 02:47:20;;;;;;;10.73;4.95;;;487.10;1561.60;;;;;;5115831;28;20036;-58
2021/06/16 02:49:52;;;;;;;11.82;4.85;;;487.20;1536.00;;;;;;5115518;28;20016;-58
2021/06/16 02:52:19;;;;;;;10.77;4.60;;;487.20;1536.00;;;;;;5115534;28;20035;-59
2021/06/16 02:54:51;;;;;;;11.00;4.95;;;487.20;1536.00;;;;;;5097131;28;20024;-58
2021/06/16 02:57:22;;;;;;;8.43;4.03;;;487.20;1536.00;;;;;;5115185;28;20464;-58
2021/06/16 02:59:49;;;;;;;14.52;4.88;;;487.20;1536.00;;;;;;5115978;28;20019;-58
2021/06/16 03:02:19;;;;;;;8.95;4.25;;;487.20;1536.00;;;;;;5115284;28;20103;-72
2021/06/16 03:04:46;;;;;;;15.88;5.13;;;487.20;1536.00;;;;;;5115100;28;20093;-58
2021/06/16 03:07:13;;;;;;;12.27;4.75;;;487.20;1536.00;;;;;;5115374;28;20031;-58
2021/06/16 03:09:40;;;;;;;11.52;4.28;;;487.20;1536.00;;;;;;5115249;28;20095;-58
2021/06/16 03:12:07;;;;;;;11.27;4.55;;;487.20;1536.00;;;;;;5115093;28;20047;-58
2021/06/16 03:14:34;;;;;;;10.88;4.90;;;487.20;1536.00;;;;;;5115173;28;20034;-58
2021/06/16 03:17:01;;;;;;;10.38;4.97;;;487.20;1536.00;;;;;;5096723;28;20024;-58
2021/06/16 03:19:28;;;;;;;7.65;4.60;;;487.20;1536.00;;;;;;5096839;28;20023;-59
2021/06/16 03:21:57;;;;;;;9.57;4.53;;;487.20;1536.00;;;;;;5114927;28;20110;-58
2021/06/16 03:24:24;;;;;;;6.90;4.50;;;487.20;1536.00;;;;;;5114881;28;20165;-58
2021/06/16 03:26:51;;;;;;;12.30;4.90;;;487.20;1536.00;;;;;;5114748;28;20040;-58
2021/06/16 03:29:19;;;;;;;6.40;4.35;;;487.20;1536.00;;;;;;5115068;28;20028;-58
2021/06/16 03:31:46;;;;;;;9.35;4.65;;;487.20;1536.00;;;;;;5114984;28;20027;-58
2021/06/16 03:34:13;;;;;;;9.95;5.05;;;487.20;1536.00;;;;;;5114669;28;20024;-58
2021/06/16 03:36:42;;;;;;;5.65;4.43;;;487.20;1536.00;;;;;;5114612;28;20027;-58
2021/06/16 03:39:09;;;;;;;11.57;5.10;;;487.20;1561.60;;;;;;5114929;28;20436;-58
2021/06/16 03:41:36;;;;;;;8.55;4.70;;;487.20;1561.60;;;;;;5114885;28;20019;-58
2021/06/16 03:44:05;;;;;;;9.77;5.25;;;487.10;1587.20;;;;;;5114546;28;20016;-58
2021/06/16 03:46:34;;;;;;;9.90;4.63;;;487.10;1561.60;;;;;;5114494;28;20081;-58
2021/06/16 03:49:03;;;;;;;11.68;4.40;;;487.10;1587.20;;;;;;5114575;28;20066;-58
2021/06/16 03:51:29;;;;;;;11.55;4.43;;;487.10;1561.60;;;;;;5114676;28;20095;-58
2021/06/16 03:53:56;;;;;;;12.75;4.47;;;487.10;1561.60;;;;;;5114361;28;20023;-59
2021/06/16 03:56:23;;;;;;;5.80;4.20;;;487.10;1561.60;;;;;;5114257;28;20024;-58
2021/06/16 03:58:53;;;;;;;8.55;4.47;;;487.10;1561.60;;;;;;5114314;28;20072;-58
2021/06/16 04:01:20;;;;;;;7.88;4.90;;;487.10;1561.60;;;;;;5114216;28;20026;-58
2021/06/16 04:03:46;;;;;;;8.07;5.18;;;487.10;1561.60;;;;;;5114008;28;20020;-58
2021/06/16 04:06:13;;;;;;;12.07;4.72;;;487.10;1561.60;;;;;;5114375;28;20035;-58
2021/06/16 04:08:44;;;;;;;8.40;4.72;;;487.20;1561.60;;;;;;5113563;28;20027;-58
2021/06/16 04:11:12;;;;;;;8.75;4.55;;;487.20;1561.60;;;;;;5114112;28;20497;-58
2021/06/16 04:13:38;;;;;;;8.38;4.43;;;487.20;1561.60;;;;;;5114272;28;20020;-58
2021/06/16 04:16:05;;;;;;;10.48;4.57;;;487.30;1561.60;;;;;;5114055;28;20091;-58
2021/06/16 04:18:32;;;;;;;11.77;4.85;;;512.00;1561.60;;;;;;5113995;28;20024;-58
2021/06/16 04:21:02;;;;;;;8.52;5.00;;;512.00;1561.60;;;;;;5114021;28;20046;-58
2021/06/16 04:23:29;;;;;;;11.57;5.10;;;512.00;1561.60;;;;;;5113929;28;20050;-73
2021/06/16 04:25:56;;;;;;;10.50;5.00;;;512.00;1561.60;;;;;;5129726;28;20027;-59
2021/06/16 04:28:22;;;;;;;8.75;4.43;;;512.00;1561.60;;;;;;5129817;28;20024;-59
2021/06/16 04:30:47;;;;;;;9.95;4.70;;;512.00;1587.20;;;;;;5113842;28;20103;-59
2021/06/16 04:33:13;;;;;;;9.35;5.00;;;512.10;1561.60;;;;;;5113840;28;20483;-73
2021/06/16 04:35:39;;;;;;;8.82;4.50;;;512.10;1561.60;;;;;;5113730;28;20023;-68
2021/06/16 04:38:05;;;;;;;7.40;4.70;;;512.10;1561.60;;;;;;5113771;28;20075;-59
2021/06/16 04:40:32;;;;;;;10.27;5.63;;;512.10;1561.60;;;;;;5113826;28;20100;-59
2021/06/16 04:42:57;;;;;;;8.13;5.15;;;512.20;1561.60;;;;;;5113930;28;20361;-73
2021/06/16 04:45:24;;;;;;;11.73;5.25;;;512.20;1587.20;;;;;;5113862;28;20018;-58
2021/06/16 04:47:49;;;;;;;10.68;5.32;;;512.10;1587.20;;;;;;5113716;28;20385;-58
2021/06/16 04:50:16;;;;;;;7.35;5.10;;;512.20;1587.20;;;;;;5113665;28;20024;-58
2021/06/16 04:52:43;;;;;;;10.10;5.18;;;512.20;1587.20;;;;;;5113706;28;20071;-59
2021/06/16 04:55:11;;;;;;;10.88;6.10;;;512.20;1587.20;;;;;;5113678;28;20019;-58
2021/06/16 04:57:38;;;;;;;13.63;5.63;;;512.20;1587.20;;;;;;5113881;28;20380;-58
2021/06/16 05:00:06;;;;;;;8.15;5.65;;;512.20;1587.20;;;;;;5113628;28;20016;-73
2021/06/16 05:02:33;;;;;;;13.27;5.32;;;512.30;1561.60;;;;;;5113613;28;20045;-58
2021/06/16 05:04:58;;;;;;;10.68;5.38;;;512.40;1561.60;;;;;;5113058;28;20043;-74
2021/06/16 05:07:24;;;;;;;15.35;5.30;;;512.50;1587.20;;;;;;5112990;28;20044;-58
2021/06/16 05:09:50;;;;;;;16.25;5.75;;;512.50;1587.20;;;;;;5113030;28;20016;-64
2021/06/16 05:12:16;;;;;;;12.57;5.15;;;512.50;1587.20;;;;;;5113046;28;20102;-59
2021/06/16 05:14:42;;;;;;;13.52;5.55;;;512.50;1612.80;;;;;;5113064;28;20057;-59
2021/06/16 05:17:08;;;;;;;13.85;5.50;;;512.50;1587.20;;;;;;5112866;28;20084;-73
2021/06/16 05:19:34;;;;;;;11.32;5.07;;;512.50;1612.80;;;;;;5113818;28;20031;-74
2021/06/16 05:22:13;;;;;;;9.02;4.55;;;512.60;1587.20;;;;;;5116765;28;20015;-58
2021/06/16 05:24:39;;;;;;;13.50;5.43;;;512.60;1587.20;;;;;;5114888;28;20011;-59
2021/06/16 05:27:06;;;;;;;10.15;5.07;;;512.70;1587.20;;;;;;5116667;28;20032;-59
2021/06/16 05:29:32;;;;;;;9.82;4.90;;;512.80;1587.20;;;;;;5123875;27;20475;-73
2021/06/16 05:31:58;;;;;;;7.95;4.65;;;512.90;1612.80;;;;;;5098529;28;20024;-72
2021/06/16 05:34:24;;;;;;;8.98;4.43;;;512.90;1587.20;;;;;;5116522;28;20023;-74
2021/06/16 05:36:50;;;;;;;8.15;4.45;;;512.90;1587.20;;;;;;5117224;28;20103;-58
2021/06/16 05:39:16;;;;;;;18.65;4.28;;;537.60;1638.40;;;;;;5117088;28;20110;-75
2021/06/16 05:41:42;;;;;;;9.70;4.38;;;537.60;1638.40;;;;;;5123459;27;20024;-59
2021/06/16 05:44:08;;;;;;;6.30;3.83;;;537.60;1612.80;;;;;;5116450;28;20012;-60
2021/06/16 05:46:34;;;;;;;8.48;3.80;;;537.70;1612.80;;;;;;5116265;28;20215;-59
2021/06/16 05:49:00;;;;;;;7.30;4.07;;;537.70;1587.20;;;;;;5116419;28;20484;-58
2021/06/16 05:51:26;;;;;;;9.05;4.13;;;537.80;1612.80;;;;;;5116642;28;20023;-59
2021/06/16 05:53:52;;;;;;;9.68;3.55;;;537.90;1612.80;;;;;;5116669;28;20023;-58
2021/06/16 05:56:18;;;;;;;8.32;3.88;;;538.00;1587.20;;;;;;5116725;28;20050;-58
2021/06/16 05:58:44;;;;;;;10.07;4.18;;;538.00;1561.60;;;;;;5116568;28;20435;-58
2021/06/16 06:01:10;;;;;;;7.53;4.03;;;538.10;1587.20;;;;;;5116736;28;20027;-58
2021/06/16 06:03:37;;;;;;;9.23;3.83;;;538.10;1587.20;;;;;;5116640;28;20476;-58
2021/06/16 06:06:03;;;;;;;7.53;3.70;;;538.10;1561.60;;;;;;5116172;28;20071;-59
2021/06/16 06:08:29;;;;;;;5.85;3.47;;;538.30;1561.60;;;;;;5116684;28;20499;-58
2021/06/16 06:10:57;;;;;;;6.70;3.60;;;538.40;1561.60;;;;;;5116319;28;20480;-58
2021/06/16 06:13:23;;;;;;;7.57;3.63;;;538.40;1561.60;;;;;;5116531;28;20376;-58
2021/06/16 06:15:49;;;;;;;8.68;4.30;;;563.20;1612.80;;;;;;5116529;28;20066;-58
2021/06/16 06:18:15;;;;;;;11.07;3.70;;;563.20;1587.20;;;;;;5115770;28;20051;-58
2021/06/16 06:20:41;;;;;;;8.95;3.97;;;563.20;1587.20;;;;;;5116121;28;20493;-58
2021/06/16 06:23:08;;;;;;;7.30;3.47;;;563.40;1587.20;;;;;;5116067;28;20131;-58
2021/06/16 06:25:35;;;;;;;7.72;3.88;;;563.40;1612.80;;;;;;5115846;28;20032;-75
2021/06/16 06:28:01;;;;;;;10.70;4.03;;;563.50;1587.20;;;;;;5115296;28;20488;-58
2021/06/16 06:30:27;;;;;;;8.70;3.83;;;563.60;1587.20;;;;;;5115363;28;20023;-58
2021/06/16 06:32:53;;;;;;;8.30;3.80;;;563.70;1561.60;;;;;;5115858;28;20019;-58
2021/06/16 06:35:19;;;;;;;9.38;4.03;;;563.80;1561.60;;;;;;5115796;28;20028;-58
2021/06/16 06:37:45;;;;;;;11.30;4.00;;;563.90;1561.60;;;;;;5116136;28;20476;-58
2021/06/16 06:40:12;;;;;;;8.88;3.78;;;564.10;1536.00;;;;;;5116012;28;20073;-58
2021/06/16 06:42:38;;;;;;;8.52;3.67;;;588.80;1561.60;;;;;;5115950;28;20023;-64
2021/06/16 06:45:06;;;;;;;6.30;3.28;;;588.90;1536.00;;;;;;5115602;28;20026;-58
2021/06/16 06:47:32;;;;;;;11.13;3.90;;;589.00;1510.40;;;;;;5115537;28;20035;-58
2021/06/16 06:49:58;;;;;;;8.25;4.25;;;589.20;1510.40;;;;;;5115498;28;20038;-73
2021/06/16 06:52:23;;;;;;;9.68;3.85;;;589.20;1484.80;;;;;;5115537;28;20027;-74
2021/06/16 06:54:49;;;;;;;7.82;3.80;;;589.30;1510.40;;;;;;5115868;28;20035;-58
2021/06/16 06:57:15;;;;;;;6.50;3.58;;;589.40;1510.40;;;;;;5115743;28;20024;-58
2021/06/16 06:59:41;;;;;;;10.82;3.30;;;589.50;1484.80;;;;;;5115329;28;20023;-58
2021/06/16 07:02:08;;;;;;;8.40;3.85;;;589.70;1459.20;;;;;;5115359;28;20076;-58
2021/06/16 07:04:34;;;;;;;9.25;3.67;;;614.40;1459.20;;;;;;5115319;28;20040;-73
2021/06/16 07:06:59;;;;;;;6.07;3.25;;;614.40;1433.60;;;;;;5115185;28;20039;-73
2021/06/16 07:09:25;;;;;;;9.13;3.42;;;614.50;1433.60;;;;;;5115100;28;20026;-58
2021/06/16 07:11:52;;;;;;;7.57;3.40;;;614.60;1433.60;;;;;;5115013;28;20019;-59
2021/06/16 07:14:18;;;;;;;8.05;3.50;;;614.70;1408.00;;;;;;5115106;28;20023;-58
2021/06/16 07:16:44;;;;;;;5.20;2.97;;;614.80;1408.00;;;;;;5114891;28;20019;-75
2021/06/16 07:19:10;;;;;;;5.80;3.88;;;614.90;1408.00;;;;;;5114920;28;20016;-58
2021/06/16 07:21:36;;;;;;;5.35;3.33;;;614.90;1408.00;;;;;;5130651;27;20388;-58
2021/06/16 07:24:04;;;;;;;5.07;3.33;;;615.00;1433.60;;;;;;5114724;28;20023;-58
2021/06/16 07:26:30;;;;;;;8.90;3.83;;;615.10;1408.00;;;;;;5114654;28;20127;-61
2021/06/16 07:28:56;;;;;;;8.63;3.33;;;615.10;1382.40;;;;;;5115491;28;20098;-57
2021/06/16 07:31:21;;;;;;;5.20;2.53;;;615.10;1408.00;;;;;;5114703;28;20023;-60
2021/06/16 07:33:47;;;;;;;5.82;2.90;;;615.10;1408.00;;;;;;5114826;28;20020;-57
2021/06/16 07:36:13;;;;;;;6.88;2.60;;;615.20;1382.40;;;;;;5105345;28;20081;-60
2021/06/16 07:38:39;;;;;;;7.05;3.40;;;615.20;1382.40;;;;;;5112064;28;20102;-58
2021/06/16 07:41:05;;;;;;;7.05;3.78;;;615.30;1382.40;;;;;;5113047;28;20027;-60
2021/06/16 07:43:31;;;;;;;4.30;3.08;;;640.00;1382.40;;;;;;5112123;28;20028;-61
2021/06/16 07:45:57;;;;;;;9.00;4.60;;;640.00;1382.40;;;;;;5113128;28;20455;-60
2021/06/16 07:48:22;;;;;;;10.63;3.38;;;640.00;1356.80;;;;;;5111999;28;20034;-60
2021/06/16 07:50:48;;;;;;;12.68;3.53;;;640.10;1356.80;;;;;;5112004;28;20529;-60
2021/06/16 07:53:14;;;;;;;5.60;3.20;;;640.20;1356.80;;;;;;5111055;28;20024;-58
2021/06/16 07:55:40;;;;;;;4.97;3.10;;;640.20;1356.80;;;;;;5111190;28;20031;-58
2021/06/16 07:58:07;;;;;;;3.65;2.45;;;640.20;1356.80;;;;;;5112530;28;20087;-61
2021/06/16 08:00:36;;;;;;;6.90;2.42;;;640.20;1356.80;;;;;;5112883;28;20024;-60
2021/06/16 08:03:02;;;;;;;5.95;2.67;;;640.20;1331.20;;;;;;5112701;28;20031;-59
2021/06/16 08:05:28;;;;;;;6.10;2.67;;;640.30;1331.20;;;;;;5112336;28;20044;-57
2021/06/16 08:07:54;;;;;;;6.78;2.83;;;640.30;1331.20;;;;;;5112903;28;20035;-60
2021/06/16 08:10:20;;;;;;;8.98;2.53;;;640.20;1356.80;;;;;;5111870;28;20039;-60
2021/06/16 08:12:46;;;;;;;7.18;2.78;;;640.20;1356.80;;;;;;5112637;28;20027;-61
2021/06/16 08:15:12;;;;;;;5.53;2.58;;;640.30;1356.80;;;;;;5112677;28;20011;-59
2021/06/16 08:17:38;;;;;;;21.45;3.17;;;640.30;1356.80;;;;;;5112644;28;20023;-60
2021/06/16 08:20:06;;;;;;;6.72;2.55;;;640.30;1356.80;;;;;;5112511;28;20348;-59
2021/06/16 08:22:33;;;;;;;5.47;2.45;;;640.30;1331.20;;;;;;5112313;28;20484;-59
2021/06/16 08:25:00;;;;;;;5.53;2.30;;;640.20;1305.60;;;;;;5112847;28;20035;-58
2021/06/16 08:27:27;;;;;;;19.95;3.58;;;640.20;1331.20;;;;;;5112358;28;20038;-58
2021/06/16 08:29:53;;;;;;;6.60;2.50;;;640.20;1331.20;;;;;;5112416;28;20016;-60
2021/06/16 08:32:19;;;;;;;17.67;3.03;;;640.20;1305.60;;;;;;5112348;28;20107;-59
2021/06/16 08:34:45;;;;;;;5.32;2.28;;;640.20;1305.60;;;;;;5112599;28;20425;-57
2021/06/16 08:37:11;;;;;;;6.53;2.03;;;640.30;1280.00;;;;;;5112452;28;20525;-58
2021/06/16 08:39:37;;;;;;;5.78;2.40;;;640.50;1280.00;;;;;;5112173;28;20020;-58
2021/06/16 08:42:03;;;;;;;24.02;20.50;;;640.60;1305.60;;;;;;5112528;28;20020;-57
2021/06/16 08:44:31;;;;;;;5.57;2.30;;;640.50;1305.60;;;;;;5113049;28;20015;-58
2021/06/16 08:46:57;;;;;;;12.82;2.63;;;640.50;1203.20;;;;;;5113662;28;20028;-59
2021/06/16 08:49:24;;;;;;;3.50;2.10;;;640.60;1203.20;;;;;;5113453;28;20028;-57
2021/06/16 08:51:50;;;;;;;4.75;1.85;;;640.60;1203.20;;;;;;5114009;28;20016;-57
2021/06/16 08:54:16;;;;;;;5.18;2.20;;;640.60;1228.80;;;;;;5114115;28;20037;-62
2021/06/16 08:56:41;;;;;;;6.07;1.83;;;640.60;1254.40;;;;;;5117615;28;20024;-61
2021/06/16 08:59:07;;;;;;;10.68;2.45;;;640.60;1228.80;;;;;;5117543;28;20094;-60
2021/06/16 09:01:33;;;;;;;9.75;2.15;;;640.60;1254.40;;;;;;5117537;28;20023;-62
2021/06/16 09:03:59;;;;;;;4.95;2.60;;;640.70;1254.40;;;;;;5099239;28;20479;-62
2021/06/16 09:06:31;;;;;;;12.85;2.83;;;640.80;1254.40;;;;;;5117516;28;20027;-60
2021/06/16 09:09:02;;;;;;;7.00;2.25;;;640.80;1254.40;;;;;;5117443;28;20024;-57
2021/06/16 09:11:32;;;;;;;9.20;2.28;;;640.80;1254.40;;;;;;5117453;28;20026;-57
2021/06/16 09:14:17;;;;;;;22.88;2.90;;;640.90;1280.00;;;;;;5109457;28;20018;-60
2021/06/16 09:16:43;;;;;;;19.15;3.20;;;640.90;1305.60;;;;;;5114849;28;20020;-61
2021/06/16 09:19:24;;;;;;;5.82;2.33;;;640.90;1254.40;;;;;;5114290;28;20144;-57
2021/06/16 09:22:06;;;;;;;7.28;2.20;;;640.90;1228.80;;;;;;5114586;28;20559;-61
2021/06/16 09:24:41;;;;;;;4.75;2.38;;;665.60;1280.00;;;;;;5115815;28;20387;-59
2021/06/16 09:27:07;;;;;;;8.50;2.10;;;665.70;1254.40;;;;;;5115006;28;20433;-58
2021/06/16 09:29:33;;;;;;;4.30;2.25;;;665.60;1280.00;;;;;;5114613;28;20024;-61
2021/06/16 09:32:06;;;;;;;6.07;2.30;;;665.70;1254.40;;;;;;5115136;28;20376;-62
2021/06/16 09:34:32;;;;;;;12.38;2.55;;;665.80;1254.40;;;;;;5115521;28;20019;-61
2021/06/16 09:37:04;;;;;;;5.32;1.90;;;665.90;1254.40;;;;;;5115193;28;20102;-61
2021/06/16 09:39:31;;;;;;;11.02;2.42;;;665.80;1280.00;;;;;;5114913;28;20043;-59
2021/06/16 09:42:12;;;;;;;8.15;2.35;;;665.80;1228.80;;;;;;5113487;28;20020;-61
2021/06/16 09:44:46;;;;;;;7.78;2.30;;;665.80;1254.40;;;;;;5112999;28;20031;-61
2021/06/16 09:47:21;;;;;;;5.68;1.83;;;665.80;1254.40;;;;;;5113747;28;20043;-60
2021/06/16 09:49:47;;;;;;;6.30;1.80;;;666.00;1203.20;;;;;;5114955;28;20019;-61
2021/06/16 09:52:37;;;;;;;5.05;2.10;;;666.00;1228.80;;;;;;5114936;28;20030;-61
2021/06/16 09:55:27;;;;;;;8.15;2.17;;;666.00;1228.80;;;;;;5115604;28;20048;-62
2021/06/16 09:57:57;;;;;;;18.77;2.47;;;666.00;1228.80;;;;;;5102813;28;20091;-61
2021/06/16 10:00:34;;;;;;;13.35;2.47;;;666.10;1228.80;;;;;;5114831;28;20033;-58
2021/06/16 10:03:10;;;;;;;6.35;1.80;;;666.10;1228.80;;;;;;5114706;28;20157;-59
2021/06/16 10:06:03;;;;;;;8.52;2.90;;;666.10;1228.80;;;;;;5114309;28;20052;-57
2021/06/16 10:08:30;;;;;;;6.72;2.13;;;666.20;1228.80;;;;;;5112929;28;20059;-61
2021/06/16 10:10:56;;;;;;;5.78;1.90;;;666.20;1203.20;;;;;;5114417;28;20047;-61
2021/06/16 10:13:25;;;;;;;8.07;2.65;;;666.20;1177.60;;;;;;5114932;28;20446;-62
2021/06/16 10:15:52;;;;;;;6.75;1.70;;;666.30;1177.60;;;;;;5114560;28;20088;-57
2021/06/16 10:18:18;;;;;;;2.78;1.52;;;666.30;1152.00;;;;;;5114646;28;20023;-60
2021/06/16 10:20:43;;;;;;;5.15;1.77;;;666.30;1177.60;;;;;;5114693;28;20024;-62
2021/06/16 10:23:10;;;;;;;5.93;1.83;;;666.40;1177.60;;;;;;5095438;28;20038;-61
2021/06/16 10:25:36;;;;;;;11.05;2.30;;;666.40;1177.60;;;;;;5113349;28;20110;-59
2021/06/16 10:28:03;;;;;;;3.85;1.80;;;666.40;1203.20;;;;;;5114316;28;20598;-61
2021/06/16 10:30:40;;;;;;;4.50;1.52;;;666.40;1177.60;;;;;;5095152;28;20020;-57
2021/06/16 10:33:29;;;;;;;5.72;1.88;;;666.40;1152.00;;;;;;5112078;28;20023;-57
2021/06/16 10:36:11;;;;;;;4.85;1.70;;;666.50;1177.60;;;;;;5112787;28;20102;-60
2021/06/16 10:38:38;;;;;;;2.25;1.33;;;666.50;1126.40;;;;;;5112220;28;20029;-59
2021/06/16 10:41:04;;;;;;;5.20;1.98;;;691.20;1177.60;;;;;;5112322;28;20475;-61
2021/06/16 10:43:35;;;;;;;2.75;1.73;;;691.20;1152.00;;;;;;5113245;28;20403;-60
2021/06/16 10:46:11;;;;;;;4.28;1.67;;;691.20;1177.60;;;;;;5111050;28;20036;-57
2021/06/16 10:48:53;;;;;;;5.90;1.77;;;691.30;1177.60;;;;;;5110560;28;20043;-60
2021/06/16 10:51:42;;;;;;;2.72;1.60;;;691.30;1177.60;;;;;;5108059;28;20020;-58
2021/06/16 10:54:26;;;;;;;9.25;2.08;;;691.30;1152.00;;;;;;5109059;28;20020;-60
2021/06/16 10:57:11;;;;;;;5.25;1.90;;;691.30;1126.40;;;;;;5112247;28;20680;-60
2021/06/16 10:59:43;;;;;;;3.75;1.70;;;691.40;1152.00;;;;;;5109871;28;20431;-63
2021/06/16 11:02:09;;;;;;;2.63;1.45;;;691.40;1152.00;;;;;;5112711;28;20072;-61
2021/06/16 11:04:39;;;;;;;6.03;1.75;;;691.40;1126.40;;;;;;5112286;28;20064;-57
2021/06/16 11:07:30;;;;;;;4.70;1.85;;;691.40;1100.80;;;;;;5111405;28;20028;-62
2021/06/16 11:09:58;;;;;;;3.83;1.67;;;691.50;1075.20;;;;;;5112181;28;20030;-59
2021/06/16 11:12:29;;;;;;;3.67;1.70;;;691.60;1075.20;;;;;;5112311;28;20080;-62
2021/06/16 11:14:55;;;;;;;3.70;1.70;;;691.60;1075.20;;;;;;5112144;28;20019;-62
2021/06/16 11:17:27;;;;;;;4.30;1.65;;;691.50;1075.20;;;;;;5110814;28;20024;-58
2021/06/16 11:20:07;;;;;;;8.77;1.80;;;691.50;1100.80;;;;;;5112447;28;20023;-58
2021/06/16 11:22:36;;;;;;;4.78;2.25;;;691.40;1126.40;;;;;;5110084;28;20556;-59
2021/06/16 11:25:10;;;;;;;4.78;3.95;;;691.60;1177.60;;;;;;5113249;28;20472;-59
2021/06/16 11:27:57;;;;;;;4.40;1.90;;;691.70;1126.40;;;;;;5112032;28;20033;-63
2021/06/16 11:30:42;;;;;;;3.28;1.58;;;691.70;1126.40;;;;;;5113177;28;20027;-58
2021/06/16 11:33:17;;;;;;;8.23;2.15;;;691.80;1100.80;;;;;;5112397;28;20026;-61
2021/06/16 11:35:49;;;;;;;8.30;6.03;;;691.80;1100.80;;;;;;5110777;28;20044;-57
2021/06/16 11:38:18;;;;;;;5.07;2.33;;;691.90;1075.20;;;;;;5111637;28;20030;-62
2021/06/16 11:41:07;;;;;;;4.53;1.92;;;691.90;1049.60;;;;;;5113414;28;20015;-58
2021/06/16 11:43:40;;;;;;;4.88;2.70;;;692.00;1100.80;;;;;;5113152;28;20494;-59
2021/06/16 11:46:11;;;;;;;;;;;692.10;1049.60;;;;;;5113389;28;20035;-62
2021/06/16 11:48:37;;;;;;;28.95;3.63;;;692.10;1049.60;;;;;;5113114;28;19911;-63
2021/06/16 11:51:05;;;;;;;3.05;1.63;;;692.10;1075.20;;;;;;5108687;28;20031;-59
2021/06/16 11:53:33;;;;;;;2.60;1.70;;;692.00;1049.60;;;;;;5111540;28;20020;-58
2021/06/16 11:56:07;;;;;;;4.07;1.67;;;692.00;1100.80;;;;;;5113026;28;20585;-58
2021/06/16 11:58:40;;;;;;;6.18;1.80;;;692.00;1024.00;;;;;;5112679;28;20028;-63
2021/06/16 12:01:15;;;;;;;2.85;1.65;;;692.00;1049.60;;;;;;5111710;28;20047;-60
2021/06/16 12:04:13;;;;;;;4.03;1.60;;;692.00;1075.20;;;;;;5112497;28;20061;-61
2021/06/16 12:06:39;;;;;;;4.22;1.83;;;692.00;1024.00;;;;;;5112507;28;20046;-61
2021/06/16 12:09:05;;;;;;;4.65;1.67;;;692.10;1049.60;;;;;;5112652;28;20494;-61
2021/06/16 12:11:35;;;;;;;2.88;1.70;;;692.10;1024.00;;;;;;5111275;28;20080;-57
2021/06/16 12:14:06;;;;;;;5.03;1.83;;;716.80;1075.20;;;;;;5112525;28;20047;-56
2021/06/16 12:16:40;;;;;;;4.30;1.70;;;716.90;1024.00;;;;;;5112580;28;20027;-62
2021/06/16 12:19:32;;;;;;;7.82;1.75;;;716.90;998.40;;;;;;5109697;28;20047;-63
2021/06/16 12:22:11;;;;;;;5.43;1.85;;;717.00;998.40;;;;;;5110773;28;20016;-59
2021/06/16 12:24:39;;;;;;;11.05;2.22;;;717.00;1024.00;;;;;;5112786;28;20085;-59